Time;durP1;ratioP1;P1;durP2;ratioP2;P2;SDS_P1;SDS_P2;PMS_P1;PMS_P2;Temp;Humidity;BMP_temperature;BMP_pressure;BME280_temperature;BME280_humidity;BME280_pressure;Samples;Min_cycle;Max_cycle;Signal;HPM_P1;HPM_P2
2020/12/26 00:00:50;;;;;;;16.17;8.80;;;4.40;70.90;;;;;;5053628;28;20417;-71
2020/12/26 00:03:16;;;;;;;19.90;9.00;;;4.40;71.00;;;;;;5051140;28;20412;-74
2020/12/26 00:05:41;;;;;;;13.10;8.93;;;4.40;71.40;;;;;;5050477;28;20416;-72
2020/12/26 00:08:07;;;;;;;15.20;8.77;;;4.40;70.90;;;;;;5044465;28;20393;-73
2020/12/26 00:10:32;;;;;;;16.45;9.23;;;4.40;71.30;;;;;;5050718;28;20874;-73
2020/12/26 00:12:58;;;;;;;19.30;8.90;;;4.30;71.40;;;;;;5050933;28;20385;-75
2020/12/26 00:15:23;;;;;;;15.87;8.93;;;4.30;71.90;;;;;;5050651;28;20736;-73
2020/12/26 00:17:49;;;;;;;17.83;9.33;;;4.30;72.10;;;;;;5050880;28;20818;-73
2020/12/26 00:20:19;;;;;;;14.93;8.50;;;4.30;71.20;;;;;;5050348;28;20412;-73
2020/12/26 00:22:45;;;;;;;16.10;8.82;;;4.30;72.10;;;;;;5050653;28;20388;-74
2020/12/26 00:25:10;;;;;;;14.32;9.30;;;4.30;70.90;;;;;;5050051;28;20393;-74
2020/12/26 00:27:36;;;;;;;15.30;8.40;;;4.40;71.00;;;;;;5050326;28;20386;-73
2020/12/26 00:30:02;;;;;;;15.30;8.77;;;4.30;70.70;;;;;;5050322;28;20393;-73
2020/12/26 00:32:27;;;;;;;17.08;8.80;;;4.40;69.70;;;;;;5050762;28;20381;-75
2020/12/26 00:34:53;;;;;;;14.23;8.13;;;4.30;70.30;;;;;;5050138;28;20390;-74
2020/12/26 00:37:18;;;;;;;11.83;8.43;;;4.30;69.50;;;;;;5050652;28;20393;-74
2020/12/26 00:39:44;;;;;;;16.23;8.90;;;4.30;70.70;;;;;;5050176;28;20389;-73
2020/12/26 00:42:11;;;;;;;22.50;9.95;;;4.20;71.60;;;;;;5052000;28;20401;-73
2020/12/26 00:44:36;;;;;;;14.27;9.20;;;4.30;71.80;;;;;;5051670;28;20436;-73
2020/12/26 00:47:03;;;;;;;15.27;8.98;;;4.30;70.80;;;;;;5052363;28;20404;-75
2020/12/26 00:49:28;;;;;;;17.35;9.50;;;4.30;70.70;;;;;;5052448;28;20488;-73
2020/12/26 00:51:54;;;;;;;16.15;9.20;;;4.40;70.30;;;;;;5053451;28;20424;-72
2020/12/26 00:54:19;;;;;;;17.40;8.60;;;4.40;69.30;;;;;;5053045;28;20412;-73
2020/12/26 00:56:45;;;;;;;16.63;9.60;;;4.40;68.80;;;;;;5054172;28;20393;-73
2020/12/26 00:59:11;;;;;;;18.73;8.77;;;4.40;68.80;;;;;;5053794;28;20743;-73
2020/12/26 01:01:36;;;;;;;18.53;9.70;;;4.40;69.60;;;;;;5054061;28;20413;-73
2020/12/26 01:04:02;;;;;;;14.87;8.20;;;4.30;69.90;;;;;;5053251;28;20463;-74
2020/12/26 01:06:27;;;;;;;14.15;8.70;;;4.40;69.60;;;;;;5046578;28;20469;-73
2020/12/26 01:08:53;;;;;;;15.40;8.68;;;4.30;69.20;;;;;;5034873;28;20881;-72
2020/12/26 01:11:19;;;;;;;13.38;8.40;;;4.30;69.70;;;;;;5035223;28;20430;-72
2020/12/26 01:13:44;;;;;;;16.30;8.40;;;4.30;69.10;;;;;;5034561;28;20407;-74
2020/12/26 01:16:11;;;;;;;11.68;8.43;;;4.30;68.30;;;;;;5050826;28;20397;-73
2020/12/26 01:18:38;;;;;;;15.93;9.07;;;4.30;69.30;;;;;;5032047;28;20385;-72
2020/12/26 01:21:04;;;;;;;14.80;8.90;;;4.30;68.00;;;;;;5050027;28;20413;-74
2020/12/26 01:23:31;;;;;;;14.77;8.50;;;4.30;68.30;;;;;;5049854;28;20465;-73
2020/12/26 01:25:56;;;;;;;21.08;9.18;;;4.40;68.10;;;;;;5049345;28;20389;-73
2020/12/26 01:28:22;;;;;;;16.67;8.40;;;4.30;68.40;;;;;;5049829;28;20753;-74
2020/12/26 01:30:48;;;;;;;20.53;9.63;;;4.30;68.70;;;;;;5049926;28;20903;-73
2020/12/26 01:33:13;;;;;;;16.30;9.15;;;4.20;70.30;;;;;;5049917;28;20396;-73
2020/12/26 01:35:39;;;;;;;17.83;9.30;;;4.40;70.90;;;;;;5049117;28;20390;-73
2020/12/26 01:38:05;;;;;;;15.10;9.33;;;4.30;69.20;;;;;;5050005;28;20389;-73
2020/12/26 01:40:31;;;;;;;17.83;9.90;;;4.20;70.60;;;;;;5049931;28;20385;-73
2020/12/26 01:42:57;;;;;;;16.50;9.17;;;4.20;70.40;;;;;;5049625;28;20882;-73
2020/12/26 01:45:24;;;;;;;18.08;9.40;;;4.20;71.40;;;;;;5049213;28;20419;-74
2020/12/26 01:47:50;;;;;;;17.20;9.30;;;4.20;71.30;;;;;;5049937;28;20381;-73
2020/12/26 01:50:15;;;;;;;15.95;8.20;;;4.20;68.90;;;;;;5050104;28;20380;-73
2020/12/26 01:52:42;;;;;;;16.17;8.63;;;4.30;68.90;;;;;;5049448;28;20393;-73
2020/12/26 01:55:08;;;;;;;16.20;9.30;;;4.20;69.30;;;;;;5050433;28;20390;-73
2020/12/26 01:57:35;;;;;;;16.90;8.65;;;4.10;71.10;;;;;;5052951;28;20392;-73
2020/12/26 02:00:05;;;;;;;18.42;9.30;;;4.00;71.40;;;;;;5053709;28;20394;-75
2020/12/26 02:02:31;;;;;;;16.17;9.38;;;4.00;71.30;;;;;;5035446;28;20402;-73
2020/12/26 02:04:56;;;;;;;15.63;9.60;;;3.90;72.30;;;;;;5053168;28;20489;-74
2020/12/26 02:07:23;;;;;;;17.53;9.00;;;3.80;73.70;;;;;;5048005;28;20868;-73
2020/12/26 02:09:51;;;;;;;17.65;9.23;;;3.90;74.10;;;;;;5053784;28;20388;-72
2020/12/26 02:12:17;;;;;;;19.35;10.23;;;3.90;73.80;;;;;;5053248;28;20882;-73
2020/12/26 02:14:47;;;;;;;13.05;8.43;;;3.90;74.20;;;;;;5052945;28;20419;-73
2020/12/26 02:17:13;;;;;;;15.40;9.10;;;4.10;71.80;;;;;;5053063;28;20440;-73
2020/12/26 02:19:39;;;;;;;15.20;8.40;;;4.20;69.40;;;;;;5053231;28;20810;-73
2020/12/26 02:22:05;;;;;;;13.10;7.80;;;4.20;68.70;;;;;;5052720;28;20418;-74
2020/12/26 02:24:30;;;;;;;17.35;8.80;;;4.30;67.50;;;;;;5053189;28;20447;-73
2020/12/26 02:26:56;;;;;;;14.18;8.80;;;4.10;68.70;;;;;;5053194;28;20384;-73
2020/12/26 02:29:21;;;;;;;18.07;9.17;;;4.10;69.60;;;;;;5054740;28;20415;-72
2020/12/26 02:31:47;;;;;;;17.40;9.00;;;4.00;70.30;;;;;;5054042;28;20397;-72
2020/12/26 02:34:12;;;;;;;16.97;9.93;;;3.90;71.90;;;;;;5054510;28;20774;-72
2020/12/26 02:36:38;;;;;;;20.73;9.33;;;3.90;73.10;;;;;;5054807;28;20389;-73
2020/12/26 02:39:07;;;;;;;18.17;9.47;;;3.90;73.40;;;;;;5054581;28;20393;-73
2020/12/26 02:41:33;;;;;;;15.63;9.55;;;3.90;73.60;;;;;;5054894;28;20406;-73
2020/12/26 02:43:58;;;;;;;12.87;8.90;;;4.10;71.30;;;;;;5054326;28;20401;-72
2020/12/26 02:46:24;;;;;;;18.38;9.40;;;4.20;70.40;;;;;;5054175;28;20774;-72
2020/12/26 02:48:50;;;;;;;17.30;9.32;;;4.30;68.00;;;;;;5052243;28;20401;-72
2020/12/26 02:51:15;;;;;;;19.15;10.20;;;4.40;67.10;;;;;;5052464;28;20867;-72
2020/12/26 02:53:41;;;;;;;14.43;9.38;;;4.30;67.90;;;;;;5051968;28;20421;-73
2020/12/26 02:56:10;;;;;;;18.10;10.10;;;4.30;69.20;;;;;;5053142;28;20394;-72
2020/12/26 02:58:37;;;;;;;15.43;10.30;;;4.30;67.90;;;;;;5053722;28;20975;-72
2020/12/26 03:01:03;;;;;;;16.05;10.27;;;4.40;66.90;;;;;;5053226;28;20495;-73
2020/12/26 03:03:28;;;;;;;16.85;9.75;;;4.50;65.90;;;;;;5052930;28;20397;-73
2020/12/26 03:05:54;;;;;;;19.90;12.13;;;4.50;65.50;;;;;;5054215;28;20530;-73
2020/12/26 03:08:19;;;;;;;20.57;11.37;;;4.40;66.50;;;;;;5036344;28;20390;-70
2020/12/26 03:10:45;;;;;;;24.70;12.07;;;4.40;68.00;;;;;;5052283;28;20405;-71
2020/12/26 03:13:10;;;;;;;21.30;12.47;;;4.40;67.20;;;;;;5051458;28;20393;-71
2020/12/26 03:15:36;;;;;;;26.87;12.80;;;4.40;67.90;;;;;;5052246;28;20468;-71
2020/12/26 03:18:01;;;;;;;24.53;13.30;;;4.30;69.50;;;;;;5052349;28;20397;-71
2020/12/26 03:20:27;;;;;;;25.77;12.43;;;4.30;70.30;;;;;;5051728;28;20393;-71
2020/12/26 03:22:52;;;;;;;19.00;11.77;;;4.30;70.10;;;;;;5051285;28;20393;-72
2020/12/26 03:25:19;;;;;;;17.90;11.90;;;4.50;68.40;;;;;;5051721;28;20419;-72
2020/12/26 03:27:45;;;;;;;23.15;12.32;;;4.60;65.70;;;;;;5033515;28;20882;-70
2020/12/26 03:30:10;;;;;;;20.33;12.50;;;4.60;65.30;;;;;;5051751;28;20396;-71
2020/12/26 03:32:36;;;;;;;19.17;12.77;;;4.50;67.00;;;;;;5051068;28;20732;-72
2020/12/26 03:35:02;;;;;;;24.50;12.83;;;4.50;65.20;;;;;;5051907;28;20735;-71
2020/12/26 03:37:28;;;;;;;17.50;11.90;;;4.50;65.50;;;;;;5037107;28;21005;-71
2020/12/26 03:39:53;;;;;;;16.40;12.50;;;4.40;67.40;;;;;;5051571;28;20476;-73
2020/12/26 03:42:21;;;;;;;23.60;13.03;;;4.50;65.60;;;;;;5049910;28;20421;-72
2020/12/26 03:44:47;;;;;;;22.13;12.75;;;4.60;65.00;;;;;;5051172;28;20408;-72
2020/12/26 03:47:13;;;;;;;20.60;12.40;;;4.60;65.50;;;;;;5050251;28;20401;-71
2020/12/26 03:49:39;;;;;;;23.10;12.90;;;4.60;65.40;;;;;;5049637;28;20405;-72
2020/12/26 03:52:05;;;;;;;23.70;13.18;;;4.60;65.60;;;;;;5050248;28;20401;-72
2020/12/26 03:54:31;;;;;;;21.65;13.80;;;4.50;66.70;;;;;;5050453;28;20459;-70
2020/12/26 03:56:56;;;;;;;21.63;13.68;;;4.40;67.40;;;;;;5050563;28;20431;-72
2020/12/26 03:59:22;;;;;;;23.00;13.43;;;4.40;67.70;;;;;;5051558;28;20751;-71
2020/12/26 04:01:48;;;;;;;28.25;14.85;;;4.50;67.80;;;;;;5050395;28;20467;-71
2020/12/26 04:04:13;;;;;;;21.63;13.52;;;4.40;68.50;;;;;;5050776;28;20429;-70
2020/12/26 04:06:40;;;;;;;22.50;12.40;;;4.50;67.70;;;;;;5042092;28;20423;-71
2020/12/26 04:09:06;;;;;;;23.65;13.35;;;4.60;65.80;;;;;;5030876;28;20387;-71
2020/12/26 04:11:31;;;;;;;20.20;13.13;;;4.80;64.10;;;;;;5041716;28;20396;-71
2020/12/26 04:13:57;;;;;;;21.17;13.90;;;4.80;63.40;;;;;;5050639;28;20400;-72
2020/12/26 04:16:22;;;;;;;25.00;13.57;;;4.70;65.10;;;;;;5050948;28;20397;-72
2020/12/26 04:18:48;;;;;;;19.80;13.37;;;4.70;65.90;;;;;;5050420;28;20392;-72
2020/12/26 04:21:13;;;;;;;22.73;13.73;;;4.70;65.90;;;;;;5050153;28;20416;-72
2020/12/26 04:23:39;;;;;;;18.00;13.25;;;4.60;66.50;;;;;;5050302;28;20397;-74
2020/12/26 04:26:09;;;;;;;21.73;13.70;;;4.60;67.20;;;;;;5050795;28;20739;-73
2020/12/26 04:28:34;;;;;;;22.83;13.50;;;4.80;66.10;;;;;;5051232;28;20464;-70
2020/12/26 04:31:00;;;;;;;23.70;13.60;;;4.70;66.40;;;;;;5050322;28;20436;-72
2020/12/26 04:33:25;;;;;;;25.90;14.30;;;4.70;67.50;;;;;;5050535;28;20393;-72
2020/12/26 04:35:51;;;;;;;21.10;14.30;;;4.70;66.80;;;;;;5050698;28;20389;-71
2020/12/26 04:38:16;;;;;;;25.00;15.00;;;4.70;67.60;;;;;;5032459;28;20389;-71
2020/12/26 04:40:43;;;;;;;22.43;15.10;;;4.70;67.40;;;;;;5050100;28;20409;-73
2020/12/26 04:43:10;;;;;;;23.83;15.45;;;4.60;68.70;;;;;;5050622;28;20951;-72
2020/12/26 04:45:36;;;;;;;22.33;15.38;;;4.60;68.80;;;;;;5050530;28;20404;-71
2020/12/26 04:48:07;;;;;;;18.42;13.98;;;4.70;66.90;;;;;;5050187;28;20385;-72
2020/12/26 04:50:34;;;;;;;23.45;15.60;;;4.70;67.00;;;;;;5050359;28;20879;-71
2020/12/26 04:53:03;;;;;;;22.25;14.48;;;4.80;67.40;;;;;;5049839;28;20416;-72
2020/12/26 04:55:31;;;;;;;20.83;14.68;;;4.80;67.30;;;;;;5047428;28;20730;-71
2020/12/26 04:58:10;;;;;;;23.30;14.50;;;4.80;67.10;;;;;;5048530;28;20389;-72
2020/12/26 05:00:36;;;;;;;24.63;14.25;;;4.80;67.00;;;;;;5049646;28;20393;-71
2020/12/26 05:03:09;;;;;;;20.65;14.73;;;4.80;69.50;;;;;;5050040;28;20397;-72
2020/12/26 05:05:39;;;;;;;21.70;13.98;;;4.80;68.30;;;;;;5049872;28;20755;-72
2020/12/26 05:08:10;;;;;;;25.45;14.90;;;4.70;69.80;;;;;;5049399;28;20389;-71
2020/12/26 05:10:37;;;;;;;21.83;14.80;;;4.60;71.10;;;;;;5048803;28;20889;-71
2020/12/26 05:13:09;;;;;;;26.10;14.30;;;4.80;70.60;;;;;;5050065;28;20399;-72
2020/12/26 05:15:35;;;;;;;21.60;14.57;;;4.80;70.30;;;;;;5050268;28;20751;-71
2020/12/26 05:18:01;;;;;;;23.58;15.05;;;4.90;67.60;;;;;;5050046;28;20390;-72
2020/12/26 05:20:27;;;;;;;24.42;16.90;;;4.90;66.10;;;;;;5050017;28;20393;-72
2020/12/26 05:23:10;;;;;;;24.13;15.02;;;5.00;66.80;;;;;;5051473;28;20476;-71
2020/12/26 05:25:44;;;;;;;24.83;16.60;;;4.90;67.90;;;;;;5052909;28;20400;-71
2020/12/26 05:28:14;;;;;;;25.48;16.48;;;4.90;68.80;;;;;;5052766;28;20423;-70
2020/12/26 05:30:45;;;;;;;27.40;17.33;;;4.90;68.70;;;;;;5052979;28;20397;-71
2020/12/26 05:33:12;;;;;;;24.67;16.73;;;4.80;69.50;;;;;;5038324;28;20539;-70
2020/12/26 05:35:42;;;;;;;27.55;17.63;;;4.70;70.40;;;;;;5056870;28;20434;-72
2020/12/26 05:38:22;;;;;;;25.50;17.07;;;4.70;70.60;;;;;;5053549;28;20472;-71
2020/12/26 05:40:51;;;;;;;22.52;16.73;;;4.60;70.70;;;;;;5053230;28;20913;-70
2020/12/26 05:43:19;;;;;;;25.33;17.25;;;4.50;71.40;;;;;;5053701;28;20400;-71
2020/12/26 05:45:45;;;;;;;26.73;17.97;;;4.40;72.30;;;;;;5053755;28;20742;-72
2020/12/26 05:48:12;;;;;;;26.10;17.73;;;4.30;73.10;;;;;;5053002;28;20777;-71
2020/12/26 05:50:39;;;;;;;27.85;18.63;;;4.40;72.90;;;;;;5053466;28;20397;-72
2020/12/26 05:53:12;;;;;;;33.40;19.35;;;4.30;73.20;;;;;;5053644;28;20742;-72
2020/12/26 05:55:38;;;;;;;29.27;18.65;;;4.40;73.40;;;;;;5053395;28;20428;-70
2020/12/26 05:58:04;;;;;;;28.60;19.70;;;4.40;73.70;;;;;;5053324;28;20377;-71
2020/12/26 06:00:34;;;;;;;35.60;22.23;;;4.30;73.60;;;;;;5053403;28;20472;-73
2020/12/26 06:03:18;;;;;;;33.65;22.42;;;4.40;74.40;;;;;;5052710;28;20455;-72
2020/12/26 06:05:47;;;;;;;37.63;22.95;;;4.40;73.50;;;;;;5053334;28;20460;-72
2020/12/26 06:08:14;;;;;;;33.40;21.67;;;4.40;74.80;;;;;;5053209;28;20790;-72
2020/12/26 06:10:41;;;;;;;30.80;20.98;;;4.40;73.40;;;;;;5053005;28;20460;-71
2020/12/26 06:13:09;;;;;;;35.17;22.00;;;4.40;74.80;;;;;;5053083;28;20420;-71
2020/12/26 06:15:36;;;;;;;32.92;22.70;;;4.40;73.90;;;;;;5052135;28;20747;-71
2020/12/26 06:18:06;;;;;;;45.58;24.80;;;4.40;73.90;;;;;;5052433;28;20485;-71
2020/12/26 06:20:32;;;;;;;33.63;22.50;;;4.40;73.30;;;;;;5052719;28;20393;-71
2020/12/26 06:22:58;;;;;;;35.40;22.25;;;4.40;73.20;;;;;;5052187;28;20397;-72
2020/12/26 06:25:23;;;;;;;33.28;21.92;;;4.40;74.10;;;;;;5052803;28;20396;-71
2020/12/26 06:27:57;;;;;;;33.20;22.08;;;4.40;74.30;;;;;;5052555;28;20385;-71
2020/12/26 06:30:23;;;;;;;34.90;21.48;;;4.40;74.10;;;;;;5052509;28;20385;-71
2020/12/26 06:32:50;;;;;;;32.40;22.33;;;4.40;73.90;;;;;;5052033;28;20393;-72
2020/12/26 06:35:16;;;;;;;37.28;22.45;;;4.40;74.50;;;;;;5052654;28;20389;-72
2020/12/26 06:37:42;;;;;;;34.65;22.98;;;4.30;75.00;;;;;;5052436;28;20389;-71
2020/12/26 06:40:23;;;;;;;37.13;23.00;;;4.30;74.70;;;;;;5052663;28;20400;-71
2020/12/26 06:42:48;;;;;;;35.83;22.20;;;4.10;75.00;;;;;;5050852;28;20502;-71
2020/12/26 06:45:29;;;;;;;35.95;23.55;;;4.10;75.80;;;;;;5051926;28;20856;-71
2020/12/26 06:47:55;;;;;;;38.13;23.05;;;3.90;77.30;;;;;;5052148;28;20853;-71
2020/12/26 06:50:25;;;;;;;36.23;23.53;;;3.80;78.20;;;;;;5052148;28;20397;-71
2020/12/26 06:52:52;;;;;;;39.70;24.33;;;3.70;79.70;;;;;;5052396;28;20396;-71
2020/12/26 06:55:44;;;;;;;34.92;23.05;;;3.60;81.00;;;;;;5051795;28;20763;-72
2020/12/26 06:58:22;;;;;;;39.40;23.93;;;3.70;81.70;;;;;;5051084;28;20428;-71
2020/12/26 07:00:48;;;;;;;36.20;23.95;;;3.60;82.00;;;;;;5052450;28;20800;-72
2020/12/26 07:03:31;;;;;;;37.55;24.75;;;3.60;82.20;;;;;;5053873;28;20480;-75
2020/12/26 07:05:57;;;;;;;38.90;23.60;;;3.70;81.70;;;;;;5051679;28;20387;-75
2020/12/26 07:08:33;;;;;;;41.10;24.90;;;3.70;80.80;;;;;;5043312;28;20393;-73
2020/12/26 07:11:01;;;;;;;35.85;23.50;;;3.70;81.70;;;;;;5055589;28;20723;-73
2020/12/26 07:13:42;;;;;;;38.78;24.23;;;3.70;81.90;;;;;;5053296;28;20404;-73
2020/12/26 07:16:32;;;;;;;43.90;24.63;;;3.60;82.10;;;;;;5051537;28;20801;-73
2020/12/26 07:19:31;;;;;;;38.97;23.60;;;3.60;82.60;;;;;;5051787;28;20377;-73
2020/12/26 07:21:57;;;;;;;44.13;25.10;;;3.60;82.10;;;;;;5051507;28;20405;-73
2020/12/26 07:24:25;;;;;;;40.90;24.30;;;3.60;82.60;;;;;;5050784;28;20409;-74
2020/12/26 07:26:52;;;;;;;42.63;24.30;;;3.60;83.30;;;;;;5051899;28;20390;-72
2020/12/26 07:29:27;;;;;;;36.90;23.35;;;3.60;83.30;;;;;;5051655;28;20382;-73
2020/12/26 07:31:54;;;;;;;35.92;22.00;;;3.60;82.80;;;;;;5051092;28;20817;-73
2020/12/26 07:34:36;;;;;;;33.47;21.25;;;3.60;82.60;;;;;;5051236;28;20394;-73
2020/12/26 07:37:03;;;;;;;36.00;21.37;;;3.60;83.30;;;;;;5052304;28;20491;-73
2020/12/26 07:39:28;;;;;;;39.43;20.70;;;3.60;82.90;;;;;;5055158;28;20389;-73
2020/12/26 07:41:56;;;;;;;34.85;20.23;;;3.70;82.70;;;;;;5054989;28;20407;-73
2020/12/26 07:44:26;;;;;;;25.52;18.00;;;3.70;81.20;;;;;;5055436;28;20488;-72
2020/12/26 07:46:55;;;;;;;33.05;20.33;;;3.70;80.70;;;;;;5055224;28;20390;-72
2020/12/26 07:49:21;;;;;;;33.05;20.65;;;3.60;81.80;;;;;;5056168;28;20431;-72
2020/12/26 07:52:00;;;;;;;29.98;18.70;;;3.60;82.00;;;;;;5055991;28;20866;-73
2020/12/26 07:54:25;;;;;;;34.47;20.15;;;3.50;81.90;;;;;;5053097;28;20492;-72
2020/12/26 07:56:54;;;;;;;29.67;17.80;;;3.50;83.30;;;;;;5055251;28;20413;-74
2020/12/26 07:59:20;;;;;;;28.95;18.20;;;3.50;82.90;;;;;;5054841;28;20389;-73
2020/12/26 08:01:55;;;;;;;28.63;18.45;;;3.50;83.00;;;;;;5054361;28;20437;-73
2020/12/26 08:04:21;;;;;;;23.92;16.75;;;3.50;83.30;;;;;;5055614;28;20420;-73
2020/12/26 08:06:49;;;;;;;26.70;17.55;;;3.60;81.90;;;;;;5044246;28;20398;-73
2020/12/26 08:09:16;;;;;;;30.25;17.85;;;3.50;83.30;;;;;;5036272;28;20825;-71
2020/12/26 08:11:42;;;;;;;25.10;16.10;;;3.60;82.30;;;;;;5035316;28;20493;-72
2020/12/26 08:14:09;;;;;;;28.65;16.50;;;3.60;82.50;;;;;;5043667;28;20451;-72
2020/12/26 08:16:35;;;;;;;27.10;17.20;;;3.60;82.90;;;;;;5049983;28;20488;-73
2020/12/26 08:19:02;;;;;;;24.20;16.15;;;3.60;81.50;;;;;;5044584;28;20405;-72
2020/12/26 08:21:29;;;;;;;23.63;15.40;;;3.60;80.80;;;;;;5049215;28;20409;-74
2020/12/26 08:23:59;;;;;;;24.85;16.25;;;3.60;81.20;;;;;;5051653;28;20398;-72
2020/12/26 08:26:31;;;;;;;25.65;15.82;;;3.60;81.40;;;;;;5050345;28;20397;-74
2020/12/26 08:29:04;;;;;;;23.67;15.87;;;3.70;80.60;;;;;;5044426;28;20399;-74
2020/12/26 08:31:32;;;;;;;26.77;14.68;;;3.80;79.30;;;;;;5046950;28;20810;-73
2020/12/26 08:34:07;;;;;;;23.50;14.20;;;3.80;78.10;;;;;;5053976;28;20475;-71
2020/12/26 08:36:38;;;;;;;20.08;13.90;;;3.80;78.00;;;;;;5049423;28;20775;-74
2020/12/26 08:39:05;;;;;;;20.98;13.38;;;3.90;76.40;;;;;;5055742;28;20412;-74
2020/12/26 08:41:32;;;;;;;19.63;14.20;;;4.00;74.60;;;;;;5060858;28;20405;-73
2020/12/26 08:43:58;;;;;;;23.92;14.00;;;4.00;73.30;;;;;;5038670;28;20408;-73
2020/12/26 08:46:26;;;;;;;21.80;14.55;;;4.00;74.20;;;;;;5067512;28;20399;-72
2020/12/26 08:48:55;;;;;;;22.75;14.52;;;4.00;73.40;;;;;;5045085;28;20381;-73
2020/12/26 08:51:23;;;;;;;21.85;13.80;;;4.10;72.40;;;;;;5069686;28;20390;-74
2020/12/26 08:53:50;;;;;;;20.38;13.02;;;4.20;70.70;;;;;;5067482;28;20397;-72
2020/12/26 08:56:16;;;;;;;19.67;13.23;;;4.30;68.60;;;;;;5031653;28;20958;-69
2020/12/26 08:58:51;;;;;;;19.08;12.50;;;4.50;67.40;;;;;;5037553;28;20924;-70
2020/12/26 09:01:16;;;;;;;23.63;13.43;;;4.80;65.60;;;;;;5051070;28;20417;-70
2020/12/26 09:03:49;;;;;;;19.10;13.13;;;5.00;62.40;;;;;;5051556;28;20935;-72
2020/12/26 09:06:15;;;;;;;26.00;12.80;;;5.10;60.10;;;;;;5054050;28;20399;-71
2020/12/26 09:08:41;;;;;;;17.73;12.57;;;5.20;58.80;;;;;;5045304;28;20937;-71
2020/12/26 09:11:09;;;;;;;20.33;12.38;;;5.30;57.00;;;;;;5021288;28;20441;-71
2020/12/26 09:13:37;;;;;;;22.98;12.68;;;5.30;55.30;;;;;;5041258;28;20410;-70
2020/12/26 09:16:10;;;;;;;23.35;12.80;;;5.20;55.60;;;;;;5038705;28;20404;-70
2020/12/26 09:18:44;;;;;;;20.33;13.05;;;5.30;54.60;;;;;;5054845;28;20412;-72
2020/12/26 09:21:30;;;;;;;17.85;12.80;;;5.30;54.60;;;;;;5050641;28;20420;-69
2020/12/26 09:23:57;;;;;;;24.88;13.30;;;5.30;53.10;;;;;;5052264;28;20399;-71
2020/12/26 09:26:28;;;;;;;17.58;11.43;;;5.30;53.00;;;;;;5041201;28;20885;-72
2020/12/26 09:28:59;;;;;;;21.00;12.20;;;5.30;52.70;;;;;;5052646;28;20878;-74
2020/12/26 09:31:29;;;;;;;19.97;12.20;;;5.40;52.40;;;;;;5053123;28;20480;-71
2020/12/26 09:33:56;;;;;;;21.30;12.43;;;5.40;51.80;;;;;;5042686;28;20401;-72
2020/12/26 09:36:25;;;;;;;19.25;11.40;;;5.50;51.30;;;;;;5035838;28;20405;-73
2020/12/26 09:38:52;;;;;;;18.83;10.87;;;5.60;50.10;;;;;;5045909;28;20483;-72
2020/12/26 09:41:23;;;;;;;16.73;11.23;;;5.60;49.20;;;;;;5053247;28;20415;-72
2020/12/26 09:43:54;;;;;;;21.23;11.50;;;5.70;48.60;;;;;;5053207;28;20413;-74
2020/12/26 09:46:20;;;;;;;22.33;10.77;;;5.70;47.70;;;;;;5052411;28;20393;-72
2020/12/26 09:48:46;;;;;;;16.75;10.82;;;5.80;46.80;;;;;;5054734;28;20401;-75
2020/12/26 09:51:19;;;;;;;20.33;11.45;;;5.80;45.70;;;;;;5055456;28;20401;-72
2020/12/26 09:53:45;;;;;;;19.52;10.02;;;5.90;46.10;;;;;;5056224;28;20405;-72
2020/12/26 09:56:11;;;;;;;18.87;9.80;;;5.80;46.40;;;;;;5048490;28;20449;-75
2020/12/26 09:58:39;;;;;;;18.35;10.43;;;5.70;47.10;;;;;;5053936;28;20429;-73
2020/12/26 10:01:05;;;;;;;21.67;10.00;;;5.80;47.80;;;;;;5058546;28;20409;-75
2020/12/26 10:03:31;;;;;;;18.23;9.50;;;5.80;46.30;;;;;;5058218;28;20428;-73
2020/12/26 10:05:57;;;;;;;17.60;9.13;;;5.90;46.00;;;;;;5058917;28;20416;-75
2020/12/26 10:08:22;;;;;;;15.02;9.15;;;5.90;45.50;;;;;;5058898;28;20405;-73
2020/12/26 10:10:48;;;;;;;16.85;9.95;;;5.80;45.60;;;;;;5059083;28;20920;-73
2020/12/26 10:13:14;;;;;;;16.30;9.75;;;5.90;46.50;;;;;;5058822;28;20381;-74
2020/12/26 10:15:39;;;;;;;20.85;9.50;;;5.90;46.50;;;;;;5059006;28;20393;-75
2020/12/26 10:18:05;;;;;;;14.80;9.80;;;5.90;46.20;;;;;;5058973;28;20390;-73
2020/12/26 10:20:30;;;;;;;19.00;9.53;;;5.90;46.50;;;;;;5058789;28;20879;-74
2020/12/26 10:22:56;;;;;;;17.37;9.20;;;6.10;45.70;;;;;;5058751;28;20410;-72
2020/12/26 10:25:24;;;;;;;16.63;8.60;;;6.10;45.60;;;;;;5058560;28;20393;-74
2020/12/26 10:27:53;;;;;;;21.90;8.77;;;6.20;43.70;;;;;;5040988;28;20408;-75
2020/12/26 10:30:20;;;;;;;15.90;8.52;;;6.30;43.90;;;;;;5038838;28;20409;-73
2020/12/26 10:32:46;;;;;;;16.58;8.60;;;6.40;43.40;;;;;;5058993;28;20404;-73
2020/12/26 10:35:11;;;;;;;16.75;8.35;;;6.60;43.00;;;;;;5058468;28;20409;-73
2020/12/26 10:37:37;;;;;;;17.77;8.80;;;6.60;42.30;;;;;;5058959;28;20432;-73
2020/12/26 10:40:03;;;;;;;11.40;7.80;;;6.70;42.10;;;;;;5059651;28;20397;-72
2020/12/26 10:42:29;;;;;;;11.50;7.60;;;6.80;41.10;;;;;;5059907;28;20491;-73
2020/12/26 10:44:54;;;;;;;15.73;7.70;;;6.80;40.00;;;;;;5059504;28;20451;-74
2020/12/26 10:47:20;;;;;;;13.30;8.00;;;6.80;40.20;;;;;;5058680;28;20418;-73
2020/12/26 10:49:45;;;;;;;9.60;6.60;;;6.70;40.10;;;;;;5041936;28;20393;-73
2020/12/26 10:52:11;;;;;;;13.00;6.72;;;6.60;40.80;;;;;;5059878;28;20397;-74
2020/12/26 10:54:36;;;;;;;11.73;6.05;;;6.60;40.00;;;;;;5057771;28;20480;-73
2020/12/26 10:57:02;;;;;;;10.73;6.85;;;6.70;39.20;;;;;;5056230;28;20432;-74
2020/12/26 10:59:27;;;;;;;10.68;6.38;;;6.70;40.00;;;;;;5039430;28;20389;-72
2020/12/26 11:01:53;;;;;;;14.23;6.43;;;6.80;39.00;;;;;;5058628;28;20413;-73
2020/12/26 11:04:18;;;;;;;9.07;6.05;;;6.90;38.50;;;;;;5055248;28;20404;-73
2020/12/26 11:06:48;;;;;;;13.02;6.60;;;6.90;38.40;;;;;;5054917;28;20390;-72
2020/12/26 11:09:14;;;;;;;9.15;6.15;;;7.00;38.30;;;;;;5058087;28;20427;-72
2020/12/26 11:11:46;;;;;;;11.68;6.15;;;7.10;37.30;;;;;;5051784;28;20938;-73
2020/12/26 11:14:11;;;;;;;10.95;6.15;;;7.10;37.70;;;;;;5052563;28;20390;-74
2020/12/26 11:16:37;;;;;;;8.30;5.50;;;7.20;37.40;;;;;;5033457;28;20400;-73
2020/12/26 11:19:02;;;;;;;9.50;6.03;;;7.20;36.80;;;;;;5051268;28;20397;-72
2020/12/26 11:21:28;;;;;;;7.90;5.30;;;7.10;36.10;;;;;;5051764;28;20409;-73
2020/12/26 11:23:53;;;;;;;6.53;5.03;;;7.10;35.90;;;;;;5051464;28;20404;-72
2020/12/26 11:26:19;;;;;;;6.20;4.80;;;6.90;36.40;;;;;;5051578;28;20400;-73
2020/12/26 11:28:44;;;;;;;9.40;5.20;;;6.90;36.70;;;;;;5050484;28;20400;-73
2020/12/26 11:31:10;;;;;;;8.23;5.20;;;6.80;37.00;;;;;;5051839;28;20385;-72
2020/12/26 11:33:37;;;;;;;8.60;5.20;;;6.70;36.80;;;;;;5051118;28;20400;-72
2020/12/26 11:36:03;;;;;;;10.20;4.93;;;6.70;37.30;;;;;;5051074;28;20397;-72
2020/12/26 11:38:28;;;;;;;9.03;4.90;;;6.80;37.10;;;;;;5032532;28;20404;-73
2020/12/26 11:40:54;;;;;;;9.30;4.80;;;6.80;36.80;;;;;;5050626;28;20857;-73
2020/12/26 11:43:19;;;;;;;7.85;5.35;;;6.80;36.80;;;;;;5051399;28;20402;-72
2020/12/26 11:45:45;;;;;;;6.82;4.60;;;6.70;37.80;;;;;;5050868;28;20401;-73
2020/12/26 11:48:11;;;;;;;7.13;4.07;;;6.70;37.70;;;;;;5049814;28;20397;-73
2020/12/26 11:50:36;;;;;;;7.93;4.43;;;6.80;36.80;;;;;;5052915;28;20401;-72
2020/12/26 11:53:02;;;;;;;6.53;4.10;;;6.80;36.90;;;;;;5053705;28;20393;-72
2020/12/26 11:55:27;;;;;;;7.97;4.40;;;6.80;36.70;;;;;;5053377;28;20409;-73
2020/12/26 11:57:53;;;;;;;9.85;4.10;;;7.00;36.10;;;;;;5054280;28;20404;-72
2020/12/26 12:00:18;;;;;;;9.43;4.40;;;7.00;36.50;;;;;;5053743;28;20396;-73
2020/12/26 12:02:44;;;;;;;5.38;3.45;;;7.00;36.00;;;;;;5054053;28;20412;-72
2020/12/26 12:05:09;;;;;;;7.90;4.10;;;7.00;35.50;;;;;;5053570;28;20381;-72
2020/12/26 12:07:36;;;;;;;6.70;3.70;;;7.00;35.50;;;;;;5053571;28;21050;-74
2020/12/26 12:10:02;;;;;;;4.90;3.58;;;7.00;35.50;;;;;;5052213;28;20863;-74
2020/12/26 12:12:28;;;;;;;7.95;3.58;;;7.10;35.50;;;;;;5050861;28;20382;-74
2020/12/26 12:14:53;;;;;;;8.63;4.07;;;7.20;34.90;;;;;;5050182;28;20452;-73
2020/12/26 12:17:19;;;;;;;8.90;3.80;;;7.30;34.80;;;;;;5050231;28;20400;-72
2020/12/26 12:19:45;;;;;;;8.80;3.50;;;7.40;35.10;;;;;;5050392;28;20393;-72
2020/12/26 12:22:10;;;;;;;9.67;4.27;;;7.30;35.50;;;;;;5032087;28;20409;-73
2020/12/26 12:24:36;;;;;;;8.20;4.20;;;7.20;36.00;;;;;;5049492;28;20786;-73
2020/12/26 12:27:02;;;;;;;7.15;3.55;;;7.30;35.20;;;;;;5031710;28;20385;-73
2020/12/26 12:29:27;;;;;;;4.97;3.65;;;7.30;36.00;;;;;;5048599;28;20393;-72
2020/12/26 12:31:53;;;;;;;7.38;3.70;;;7.50;35.60;;;;;;5049458;28;20411;-73
2020/12/26 12:34:18;;;;;;;8.07;3.80;;;7.40;35.10;;;;;;5049812;28;20496;-73
2020/12/26 12:36:44;;;;;;;7.75;4.40;;;7.40;34.90;;;;;;5050256;28;20400;-74
2020/12/26 12:39:09;;;;;;;9.45;4.20;;;7.40;35.60;;;;;;5049824;28;20404;-73
2020/12/26 12:41:35;;;;;;;9.32;4.35;;;7.30;36.50;;;;;;5049309;28;20500;-73
2020/12/26 12:44:00;;;;;;;9.18;3.80;;;7.30;36.40;;;;;;5049557;28;20397;-73